Time;durP1;ratioP1;P1;durP2;ratioP2;P2;SDS_P1;SDS_P2;PMS_P1;PMS_P2;Temp;Humidity;BMP_temperature;BMP_pressure;BME280_temperature;BME280_humidity;BME280_pressure;Samples;Min_cycle;Max_cycle;Signal;HPM_P1;HPM_P2
2023/12/10 00:00:19;;;;;;;33.07;6.73;;;;;;;8.13;100.00;99773.00;5255993;28;20031;-75
2023/12/10 00:02:50;;;;;;;31.07;6.30;;;;;;;8.26;100.00;99769.56;5255307;28;20095;-73
2023/12/10 00:05:21;;;;;;;40.83;8.87;;;;;;;8.25;100.00;99778.34;5254000;28;20028;-71
2023/12/10 00:07:53;;;;;;;30.60;7.03;;;;;;;8.34;100.00;99775.94;5256156;28;20032;-70
2023/12/10 00:10:24;;;;;;;33.00;6.70;;;;;;;8.34;100.00;99777.72;5268096;28;20021;-70
2023/12/10 00:12:55;;;;;;;33.10;7.87;;;;;;;8.34;100.00;99769.91;5258654;28;20112;-73
2023/12/10 00:15:27;;;;;;;34.27;6.40;;;;;;;8.37;100.00;99782.72;5269324;28;20024;-72
2023/12/10 00:17:58;;;;;;;30.40;7.07;;;;;;;8.26;100.00;99782.59;5272597;28;20024;-71
2023/12/10 14:01:09;;;;;;;37.10;7.73;;;;;;;9.41;100.00;100415.03;5311130;27;1269887;-69
2023/12/10 14:03:42;;;;;;;29.37;7.30;;;;;;;9.43;100.00;100400.09;5353078;27;20027;-69
2023/12/10 14:06:13;;;;;;;35.00;8.30;;;;;;;9.52;100.00;100379.53;5346856;27;20102;-69
2023/12/10 14:08:45;;;;;;;33.53;7.50;;;;;;;9.49;100.00;100388.44;5357599;27;20628;-69
2023/12/10 14:11:16;;;;;;;35.27;6.90;;;;;;;9.46;100.00;100399.06;5348970;27;20102;-70
2023/12/10 14:13:47;;;;;;;27.83;6.20;;;;;;;9.60;100.00;100379.91;5354302;27;20573;-69
2023/12/10 14:16:19;;;;;;;32.87;7.47;;;;;;;9.64;100.00;100363.09;5354161;27;20023;-70
2023/12/10 14:18:50;;;;;;;26.30;6.60;;;;;;;9.61;100.00;100363.28;5357524;27;20533;-70
2023/12/10 14:21:24;;;;;;;35.17;7.30;;;;;;;9.65;100.00;100354.28;5356572;27;20772;-69
2023/12/10 14:23:56;;;;;;;;;;;;;;;9.87;100.00;100359.94;5357222;27;20465;-70
2023/12/10 14:26:27;;;;;;;32.07;7.63;;;;;;;9.66;100.00;100353.38;5354745;27;19929;-70
2023/12/10 14:28:59;;;;;;;29.50;6.73;;;;;;;9.67;100.00;100344.59;5347962;27;20465;-70
2023/12/10 14:31:31;;;;;;;30.47;7.83;;;;;;;9.63;100.00;100327.44;5347849;27;20019;-69
2023/12/10 14:34:02;;;;;;;35.63;8.60;;;;;;;9.67;100.00;100328.91;5357670;27;20457;-70
2023/12/10 14:36:33;;;;;;;24.93;7.47;;;;;;;9.64;100.00;100315.19;5352303;27;20042;-68
2023/12/10 14:39:06;;;;;;;27.77;6.57;;;;;;;9.67;100.00;100318.44;5349161;27;20488;-70
2023/12/10 14:41:37;;;;;;;26.53;7.70;;;;;;;9.61;100.00;100331.06;5344388;27;20028;-71
2023/12/10 14:44:09;;;;;;;24.77;5.97;;;;;;;9.48;100.00;100313.56;5345131;27;20023;-69
2023/12/10 14:46:40;;;;;;;36.13;7.87;;;;;;;9.59;100.00;100319.88;5353886;27;20423;-70
2023/12/10 14:49:11;;;;;;;40.37;8.93;;;;;;;9.62;100.00;100330.13;5348839;27;20038;-67
2023/12/10 14:51:43;;;;;;;38.07;10.17;;;;;;;9.63;100.00;100326.59;5355725;27;20050;-72
2023/12/10 14:54:14;;;;;;;33.00;8.07;;;;;;;9.66;100.00;100310.69;5356207;27;20532;-70
2023/12/10 14:56:49;;;;;;;33.17;8.27;;;;;;;9.76;100.00;100331.84;5352567;27;20118;-69
2023/12/10 14:59:21;;;;;;;22.10;6.07;;;;;;;9.63;100.00;100305.66;5343949;27;20055;-72
2023/12/10 15:01:52;;;;;;;27.17;6.50;;;;;;;9.59;100.00;100278.88;5354436;27;20088;-69
2023/12/10 15:04:23;;;;;;;24.83;7.10;;;;;;;9.53;100.00;100305.44;5345137;27;20148;-67
2023/12/10 15:06:55;;;;;;;29.53;8.23;;;;;;;9.48;100.00;100300.47;5341610;27;20534;-66
2023/12/10 15:09:27;;;;;;;25.77;6.40;;;;;;;9.39;100.00;100267.94;5344345;27;20017;-70
2023/12/10 15:11:58;;;;;;;32.77;6.37;;;;;;;9.43;100.00;100271.19;5337427;27;20032;-70
2023/12/10 15:14:30;;;;;;;29.63;7.50;;;;;;;9.31;100.00;100264.97;5336774;27;20055;-68
2023/12/10 15:17:02;;;;;;;24.13;6.20;;;;;;;9.39;100.00;100282.78;5337790;27;20084;-67
2023/12/10 15:19:41;;;;;;;27.97;7.37;;;;;;;9.47;100.00;100269.22;5341218;27;20066;-66
2023/12/10 15:22:15;;;;;;;24.03;6.07;;;;;;;9.29;100.00;100235.47;5338281;27;20695;-68
2023/12/10 15:24:46;;;;;;;24.63;6.67;;;;;;;9.29;100.00;100219.81;5340082;27;20026;-68
2023/12/10 15:27:19;;;;;;;25.83;5.73;;;;;;;9.32;100.00;100201.31;5340061;27;20027;-68
2023/12/10 15:29:50;;;;;;;19.43;5.37;;;;;;;9.37;100.00;100235.84;5340020;27;20054;-69
2023/12/10 15:32:22;;;;;;;22.20;6.07;;;;;;;9.44;100.00;100236.28;5332111;27;20035;-68
2023/12/10 15:34:54;;;;;;;19.77;4.87;;;;;;;9.38;100.00;100227.06;5340565;27;20059;-70
2023/12/10 15:37:28;;;;;;;25.80;5.53;;;;;;;9.20;100.00;100205.56;5338276;27;20026;-68
2023/12/10 15:39:59;;;;;;;24.37;5.90;;;;;;;9.19;100.00;100188.22;5339424;27;20080;-69
2023/12/10 15:42:30;;;;;;;25.60;6.40;;;;;;;9.17;100.00;100184.84;5338620;27;20027;-69
2023/12/10 15:45:03;;;;;;;27.77;5.43;;;;;;;9.22;100.00;100188.00;5340738;27;20037;-68
2023/12/10 15:47:35;;;;;;;29.03;6.90;;;;;;;9.15;100.00;100173.66;5338279;27;20111;-68
2023/12/10 15:50:07;;;;;;;29.60;6.40;;;;;;;9.09;100.00;100161.84;5341304;27;20458;-69
2023/12/10 15:52:38;;;;;;;24.07;6.23;;;;;;;9.05;100.00;100152.53;5334284;27;20493;-67
2023/12/10 15:55:10;;;;;;;22.40;5.53;;;;;;;9.05;100.00;100152.53;5339722;27;20035;-68
2023/12/10 15:57:41;;;;;;;24.27;6.20;;;;;;;9.13;100.00;100147.63;5337686;27;20327;-69
2023/12/10 16:00:13;;;;;;;27.77;6.03;;;;;;;9.11;100.00;100149.50;5339266;27;20047;-69
2023/12/10 16:02:44;;;;;;;30.10;7.60;;;;;;;9.17;100.00;100158.72;5335984;27;20062;-70
2023/12/10 16:05:16;;;;;;;23.30;5.57;;;;;;;9.13;100.00;100141.59;5331973;27;20035;-68
2023/12/10 16:07:47;;;;;;;22.43;6.00;;;;;;;9.10;100.00;100113.88;5328273;27;20030;-70
2023/12/10 16:10:19;;;;;;;23.63;5.37;;;;;;;9.13;100.00;100107.63;5335848;27;20023;-70
2023/12/10 16:12:50;;;;;;;26.07;5.97;;;;;;;9.15;100.00;100101.34;5335345;27;20030;-70
2023/12/10 16:15:23;;;;;;;18.30;4.73;;;;;;;9.14;100.00;100091.84;5340772;27;20027;-71
2023/12/10 16:17:55;;;;;;;27.30;5.63;;;;;;;9.06;100.00;100068.84;5339526;27;20055;-71
2023/12/10 16:20:26;;;;;;;23.73;6.23;;;;;;;9.06;100.00;100068.00;5333625;27;20040;-71
2023/12/10 16:22:57;;;;;;;24.70;5.87;;;;;;;9.10;100.00;100069.47;5331641;27;20031;-73
2023/12/10 16:25:29;;;;;;;23.20;5.53;;;;;;;9.07;100.00;100061.84;5329113;27;20015;-72
2023/12/10 16:28:00;;;;;;;23.90;6.00;;;;;;;8.92;100.00;100041.03;5328099;27;20028;-69
2023/12/10 16:30:32;;;;;;;22.90;5.57;;;;;;;8.89;100.00;100015.13;5337537;27;20118;-70
2023/12/10 16:33:03;;;;;;;18.27;5.60;;;;;;;8.85;100.00;99997.97;5338249;27;20175;-69
2023/12/10 16:35:34;;;;;;;20.07;5.30;;;;;;;8.79;100.00;99987.94;5337121;27;20030;-69
2023/12/10 16:38:06;;;;;;;23.77;5.40;;;;;;;8.87;100.00;99990.88;5338133;27;20031;-69
2023/12/10 16:40:37;;;;;;;20.93;5.93;;;;;;;8.79;100.00;99973.13;5317788;27;20050;-69
2023/12/10 16:43:08;;;;;;;24.93;6.37;;;;;;;8.76;100.00;99972.47;5338042;27;20485;-69
2023/12/10 16:45:40;;;;;;;19.27;5.13;;;;;;;8.77;100.00;99961.09;5335645;27;20560;-70
2023/12/10 16:48:11;;;;;;;22.70;5.37;;;;;;;8.74;100.00;99950.84;5327129;27;20484;-70
2023/12/10 16:50:42;;;;;;;21.67;5.20;;;;;;;8.53;100.00;99922.59;5336107;27;20669;-70
2023/12/10 16:53:14;;;;;;;21.73;5.77;;;;;;;8.58;100.00;99934.44;5336711;27;20031;-70
2023/12/10 16:55:48;;;;;;;21.77;5.30;;;;;;;8.57;100.00;99931.94;5338073;27;20015;-70
2023/12/10 16:58:20;;;;;;;28.25;6.20;;;;;;;8.45;100.00;99897.00;5338966;27;20048;-70
2023/12/10 17:00:51;;;;;;;22.30;5.67;;;;;;;8.63;100.00;99907.19;5324688;27;20035;-70
2023/12/10 17:03:22;;;;;;;23.27;5.77;;;;;;;8.34;100.00;99898.53;5338406;27;20027;-67
2023/12/10 17:05:54;;;;;;;23.73;6.63;;;;;;;8.63;100.00;99904.59;5324158;27;20028;-68
2023/12/10 17:08:25;;;;;;;18.20;5.57;;;;;;;8.40;100.00;99892.09;5333523;27;20027;-69
2023/12/10 17:10:56;;;;;;;21.67;6.10;;;;;;;8.41;100.00;99891.16;5332158;27;20023;-68
2023/12/10 17:13:28;;;;;;;25.90;5.47;;;;;;;8.39;100.00;99876.53;5326944;27;20023;-68
2023/12/10 17:15:59;;;;;;;22.13;4.53;;;;;;;8.37;100.00;99874.03;5336070;27;20038;-68
2023/12/10 17:18:31;;;;;;;22.10;4.80;;;;;;;8.39;100.00;99860.88;5332714;27;20604;-71
2023/12/10 17:21:02;;;;;;;23.47;5.67;;;;;;;8.35;100.00;99852.44;5333409;27;20041;-69
2023/12/10 17:23:33;;;;;;;22.23;4.30;;;;;;;8.29;100.00;99843.22;5336283;27;20677;-69
2023/12/10 17:26:05;;;;;;;20.30;5.80;;;;;;;8.07;100.00;99826.41;5338711;27;20019;-69
2023/12/10 17:28:36;;;;;;;21.33;5.00;;;;;;;8.22;100.00;99826.34;5334018;27;20035;-71
2023/12/10 17:31:08;;;;;;;19.70;4.93;;;;;;;8.25;100.00;99807.03;5332614;27;20069;-69
2023/12/10 17:33:39;;;;;;;27.50;6.10;;;;;;;8.20;100.00;99782.06;5328196;27;20027;-69
2023/12/10 17:36:11;;;;;;;18.37;4.00;;;;;;;8.24;100.00;99780.09;5338910;27;20046;-71
2023/12/10 17:38:42;;;;;;;19.70;4.73;;;;;;;8.28;100.00;99815.47;5330399;27;20032;-69
2023/12/10 17:41:14;;;;;;;15.20;4.13;;;;;;;8.12;100.00;99776.53;5334942;27;20035;-68
2023/12/10 17:43:46;;;;;;;16.73;3.67;;;;;;;8.06;100.00;99776.97;5337856;27;20035;-68
2023/12/10 17:46:17;;;;;;;20.07;4.60;;;;;;;8.05;100.00;99785.69;5338071;27;20061;-71
2023/12/10 17:48:49;;;;;;;17.83;3.70;;;;;;;8.02;100.00;99791.13;5327657;27;20035;-69
2023/12/10 17:51:21;;;;;;;18.77;4.10;;;;;;;8.19;100.00;99787.41;5330658;27;20390;-71
2023/12/10 17:53:52;;;;;;;15.60;3.57;;;;;;;8.14;100.00;99782.50;5335248;27;20042;-69
2023/12/10 17:56:23;;;;;;;20.40;4.00;;;;;;;8.17;100.00;99764.03;5332667;27;20034;-69
2023/12/10 17:58:55;;;;;;;13.27;4.17;;;;;;;8.26;100.00;99759.97;5327960;28;20023;-69
2023/12/10 18:01:26;;;;;;;14.40;4.23;;;;;;;8.19;100.00;99767.38;5329255;28;20488;-69
2023/12/10 18:03:58;;;;;;;21.70;5.10;;;;;;;8.13;100.00;99754.75;5338320;27;20042;-70
2023/12/10 18:06:29;;;;;;;12.57;4.80;;;;;;;8.06;100.00;99740.44;5330005;27;20064;-70
2023/12/10 18:09:02;;;;;;;14.67;4.40;;;;;;;8.28;100.00;99745.03;5325081;28;20038;-69
2023/12/10 18:11:38;;;;;;;13.10;3.13;;;;;;;8.23;100.00;99739.31;5337249;28;20029;-70
2023/12/10 18:14:10;;;;;;;16.33;4.17;;;;;;;8.26;100.00;99743.47;5337396;28;20031;-70
2023/12/10 18:16:41;;;;;;;10.00;2.90;;;;;;;8.32;100.00;99758.72;5329738;27;20023;-70
2023/12/10 18:19:13;;;;;;;13.50;3.37;;;;;;;8.31;100.00;99754.44;5326420;28;20035;-70
2023/12/10 18:21:44;;;;;;;15.10;3.67;;;;;;;8.33;100.00;99752.56;5330488;27;20063;-70
2023/12/10 18:24:16;;;;;;;12.03;3.30;;;;;;;8.38;100.00;99740.03;5325833;28;20035;-70
2023/12/10 18:26:47;;;;;;;8.33;2.07;;;;;;;8.38;100.00;99749.66;5337419;28;20023;-69
2023/12/10 18:29:18;;;;;;;12.63;3.03;;;;;;;8.45;100.00;99756.94;5335979;27;20023;-71
2023/12/10 18:31:50;;;;;;;15.50;3.10;;;;;;;8.41;100.00;99745.03;5334590;28;20079;-70
2023/12/10 18:34:21;;;;;;;12.33;2.70;;;;;;;8.40;100.00;99748.59;5337460;28;20047;-69
2023/12/10 18:36:53;;;;;;;11.33;2.97;;;;;;;8.55;100.00;99745.88;5327260;28;20070;-70
2023/12/10 18:39:24;;;;;;;9.13;2.77;;;;;;;8.51;100.00;99734.81;5328366;28;20042;-70
2023/12/10 18:41:56;;;;;;;6.03;2.23;;;;;;;8.58;100.00;99725.66;5336261;28;20027;-69
2023/12/10 18:44:27;;;;;;;8.43;2.37;;;;;;;8.62;100.00;99722.81;5325371;28;20485;-70
2023/12/10 18:46:58;;;;;;;6.43;2.00;;;;;;;8.63;100.00;99743.59;5340727;27;20029;-69
2023/12/10 18:49:30;;;;;;;6.97;2.37;;;;;;;8.60;100.00;99735.97;5331032;27;20028;-69
2023/12/10 18:52:01;;;;;;;5.20;2.27;;;;;;;8.65;100.00;99731.28;5271071;27;20039;-70
2023/12/10 18:54:32;;;;;;;6.27;2.27;;;;;;;8.79;100.00;99708.59;5326542;27;20305;-70
2023/12/10 18:57:04;;;;;;;7.93;2.17;;;;;;;8.75;100.00;99730.63;5322255;27;20040;-69
2023/12/10 18:59:35;;;;;;;7.67;2.80;;;;;;;8.77;100.00;99724.34;5303729;27;20437;-68
2023/12/10 19:02:07;;;;;;;7.33;2.30;;;;;;;8.89;100.00;99719.19;5328718;27;20069;-69
2023/12/10 19:04:38;;;;;;;8.40;2.47;;;;;;;8.97;100.00;99729.97;5322743;27;20623;-68
2023/12/10 19:07:09;;;;;;;8.23;1.97;;;;;;;8.94;100.00;99725.78;5323288;27;20068;-70
2023/12/10 19:09:44;;;;;;;9.47;2.60;;;;;;;8.99;100.00;99737.69;5322554;27;20549;-68
2023/12/10 19:12:15;;;;;;;5.43;1.85;;;;;;;9.01;100.00;99736.63;5324168;27;20466;-70
2023/12/10 19:14:47;;;;;;;5.13;2.40;;;;;;;8.95;100.00;99713.56;5326353;27;20029;-68
2023/12/10 19:17:19;;;;;;;8.20;2.70;;;;;;;9.00;100.00;99739.34;5322471;27;20030;-68
2023/12/10 19:19:50;;;;;;;5.53;2.87;;;;;;;9.05;100.00;99737.22;5320970;27;20026;-72
2023/12/10 19:22:21;;;;;;;4.13;1.70;;;;;;;9.18;100.00;99729.38;5328984;27;20549;-73
2023/12/10 19:24:54;;;;;;;8.63;2.47;;;;;;;9.18;100.00;99743.25;5327515;27;20055;-69
2023/12/10 19:27:25;;;;;;;10.90;2.87;;;;;;;9.22;100.00;99735.19;5323737;27;20122;-70
2023/12/10 19:29:56;;;;;;;7.07;2.80;;;;;;;9.28;100.00;99732.97;5330710;27;20058;-69
2023/12/10 19:32:28;;;;;;;7.67;2.37;;;;;;;9.24;100.00;99730.69;5324605;27;20540;-70
2023/12/10 19:34:59;;;;;;;7.90;2.43;;;;;;;9.36;100.00;99740.25;5318020;27;20043;-69
2023/12/10 19:37:30;;;;;;;7.80;2.47;;;;;;;9.40;100.00;99749.53;5321624;27;20082;-71
2023/12/10 19:40:05;;;;;;;7.33;2.60;;;;;;;9.45;100.00;99749.19;5329303;27;20121;-69
2023/12/10 19:42:37;;;;;;;9.67;3.70;;;;;;;9.40;100.00;99757.38;5321957;27;20474;-70
2023/12/10 19:45:08;;;;;;;10.03;2.93;;;;;;;9.37;100.00;99752.38;5322654;27;20050;-70
2023/12/10 19:47:40;;;;;;;8.93;2.40;;;;;;;9.38;100.00;99737.50;5319489;27;20028;-70
2023/12/10 19:50:11;;;;;;;7.87;2.60;;;;;;;9.47;100.00;99749.09;5327792;27;20019;-72
2023/12/10 19:52:43;;;;;;;8.23;3.17;;;;;;;9.60;100.00;99752.47;5319146;27;20038;-73
2023/12/10 19:55:14;;;;;;;11.77;3.73;;;;;;;9.61;100.00;99748.06;5327641;27;20015;-72
2023/12/10 19:57:46;;;;;;;10.30;3.70;;;;;;;9.58;100.00;99754.38;5323281;27;20429;-71
2023/12/10 20:00:18;;;;;;;7.27;2.80;;;;;;;9.61;100.00;99755.91;5322041;27;20047;-72
2023/12/10 20:02:50;;;;;;;12.40;2.53;;;;;;;9.74;100.00;99763.72;5331267;27;20027;-71
2023/12/10 20:05:21;;;;;;;10.10;3.17;;;;;;;9.68;100.00;99765.81;5325005;27;20084;-71
2023/12/10 20:07:53;;;;;;;9.77;3.13;;;;;;;9.62;100.00;99771.50;5331112;27;20035;-70
2023/12/10 20:10:24;;;;;;;12.07;3.73;;;;;;;9.75;100.00;99773.19;5323921;27;20069;-71
2023/12/10 20:12:56;;;;;;;13.97;4.13;;;;;;;9.72;100.00;99765.59;5326629;27;20835;-71
2023/12/10 20:15:27;;;;;;;14.87;3.30;;;;;;;9.62;100.00;99755.81;5327515;27;20110;-72
2023/12/10 20:17:58;;;;;;;12.40;3.57;;;;;;;9.73;100.00;99754.19;5325821;27;20039;-72
2023/12/10 20:20:30;;;;;;;10.83;3.43;;;;;;;9.75;100.00;99757.50;5322130;27;20039;-71
2023/12/10 20:23:04;;;;;;;14.63;3.57;;;;;;;9.77;100.00;99768.69;5322671;27;20036;-72
2023/12/10 20:25:36;;;;;;;13.63;4.43;;;;;;;9.78;100.00;99755.50;5327764;27;20025;-70
2023/12/10 20:28:10;;;;;;;16.30;5.03;;;;;;;9.82;100.00;99748.28;5324703;27;20092;-70
2023/12/10 20:30:41;;;;;;;14.57;4.47;;;;;;;9.76;100.00;99757.41;5320693;27;20061;-70
2023/12/10 20:33:13;;;;;;;12.20;3.43;;;;;;;9.74;100.00;99756.66;5325172;27;20157;-71
2023/12/10 20:35:44;;;;;;;17.77;4.47;;;;;;;9.74;100.00;99768.94;5322849;27;20027;-71
2023/12/10 20:38:16;;;;;;;18.30;4.27;;;;;;;9.67;100.00;99773.75;5323341;27;20032;-71
2023/12/10 20:40:47;;;;;;;17.67;4.43;;;;;;;9.72;100.00;99783.91;5324176;27;20031;-72
2023/12/10 20:43:18;;;;;;;15.60;4.83;;;;;;;9.75;100.00;99770.59;5326250;27;20034;-71
2023/12/10 20:45:50;;;;;;;16.17;3.87;;;;;;;9.84;100.00;99784.75;5324184;27;20031;-70
2023/12/10 20:48:21;;;;;;;21.20;5.50;;;;;;;9.82;100.00;99787.50;5317759;27;20059;-71
2023/12/10 20:50:52;;;;;;;21.70;5.07;;;;;;;9.89;100.00;99793.94;5320406;27;20442;-72
2023/12/10 20:53:24;;;;;;;15.07;4.70;;;;;;;9.79;100.00;99792.97;5337660;27;20027;-74
2023/12/10 20:55:59;;;;;;;18.47;6.70;;;;;;;9.74;100.00;99800.31;5326613;27;20103;-71
2023/12/10 20:58:30;;;;;;;25.13;6.13;;;;;;;9.87;100.00;99801.06;5333780;27;20022;-73
2023/12/10 21:01:01;;;;;;;16.63;4.70;;;;;;;9.79;100.00;99801.63;5338933;27;20069;-73
2023/12/10 21:03:34;;;;;;;21.33;6.37;;;;;;;9.86;100.00;99809.03;5332769;27;20035;-70
2023/12/10 21:06:07;;;;;;;20.60;5.00;;;;;;;9.73;100.00;99806.47;5338499;27;20027;-77
2023/12/10 21:08:38;;;;;;;20.87;4.83;;;;;;;9.71;100.00;99816.19;5339054;27;20043;-69
2023/12/10 21:11:10;;;;;;;25.90;4.80;;;;;;;9.63;100.00;99812.38;5337717;27;20030;-70
2023/12/10 21:13:41;;;;;;;24.17;5.30;;;;;;;9.61;100.00;99816.88;5340609;27;20029;-74
2023/12/10 21:16:13;;;;;;;23.40;5.70;;;;;;;9.62;100.00;99822.94;5340693;27;20378;-74
2023/12/10 21:18:44;;;;;;;19.30;4.67;;;;;;;9.61;100.00;99816.03;5339402;27;21042;-73
2023/12/10 21:21:16;;;;;;;18.37;5.53;;;;;;;9.72;100.00;99812.66;5332759;27;20075;-74
2023/12/10 21:23:48;;;;;;;23.77;6.33;;;;;;;9.67;100.00;99834.72;5340675;27;20031;-73
2023/12/10 21:26:19;;;;;;;24.17;5.47;;;;;;;9.56;100.00;99827.66;5334528;27;20106;-73
2023/12/10 21:28:51;;;;;;;24.47;6.00;;;;;;;9.63;100.00;99827.22;5333481;27;20114;-74
2023/12/10 21:31:22;;;;;;;23.83;5.93;;;;;;;9.55;100.00;99822.53;5338468;27;20062;-75
2023/12/10 21:33:53;;;;;;;21.93;6.47;;;;;;;9.54;100.00;99829.56;5328673;27;20039;-78
2023/12/10 21:36:25;;;;;;;21.73;6.37;;;;;;;9.45;100.00;99814.53;5332406;27;20058;-72
2023/12/10 21:38:56;;;;;;;17.43;5.73;;;;;;;9.50;100.00;99829.88;5329521;27;20618;-75
2023/12/10 21:41:28;;;;;;;26.47;7.03;;;;;;;9.47;100.00;99828.34;5335346;27;20049;-75
2023/12/10 21:43:59;;;;;;;20.60;6.03;;;;;;;9.47;100.00;99836.19;5340430;27;20023;-75
2023/12/10 21:46:30;;;;;;;27.03;6.60;;;;;;;9.41;100.00;99841.81;5339814;27;20031;-74
2023/12/10 21:49:02;;;;;;;28.10;6.50;;;;;;;9.42;100.00;99848.72;5334630;27;20049;-73
2023/12/10 21:51:33;;;;;;;23.37;6.50;;;;;;;9.46;100.00;99849.34;5339179;27;20023;-72
